sensor_id;sensor_type;location;lat;lon;timestamp;pressure;altitude;pressure_sealevel;temperature;humidity
6090;BME280;3073;42.660;23.316;2023-11-19T00:00:25;94450.16;;;13.85;42.69
6090;BME280;3073;42.660;23.316;2023-11-19T00:02:52;94446.69;;;15.74;40.43
6090;BME280;3073;42.660;23.316;2023-11-19T00:05:21;94444.59;;;16.10;39.92
6090;BME280;3073;42.660;23.316;2023-11-19T00:07:47;94446.09;;;15.48;40.50
6090;BME280;3073;42.660;23.316;2023-11-19T00:10:16;94440.16;;;15.86;40.05
6090;BME280;3073;42.660;23.316;2023-11-19T00:12:45;94426.91;;;14.71;41.72
6090;BME280;3073;42.660;23.316;2023-11-19T00:15:12;94431.91;;;15.07;40.94
6090;BME280;3073;42.660;23.316;2023-11-19T00:17:39;94431.16;;;14.02;42.85
6090;BME280;3073;42.660;23.316;2023-11-19T00:20:10;94434.00;;;16.16;39.18
6090;BME280;3073;42.660;23.316;2023-11-19T00:22:39;94434.34;;;15.32;40.71
6090;BME280;3073;42.660;23.316;2023-11-19T00:25:07;94434.44;;;14.32;41.98
6090;BME280;3073;42.660;23.316;2023-11-19T00:27:34;94436.19;;;14.62;41.80
6090;BME280;3073;42.660;23.316;2023-11-19T00:30:03;94440.91;;;16.21;39.60
6090;BME280;3073;42.660;23.316;2023-11-19T00:32:31;94434.13;;;14.69;41.22
6090;BME280;3073;42.660;23.316;2023-11-19T00:34:58;94440.00;;;16.07;39.44
6090;BME280;3073;42.660;23.316;2023-11-19T00:37:24;94435.66;;;14.65;41.18
6090;BME280;3073;42.660;23.316;2023-11-19T00:39:53;94448.78;;;14.64;41.90
6090;BME280;3073;42.660;23.316;2023-11-19T00:42:21;94454.50;;;15.10;40.73
6090;BME280;3073;42.660;23.316;2023-11-19T00:44:49;94457.81;;;13.55;43.10
6090;BME280;3073;42.660;23.316;2023-11-19T00:47:16;94454.31;;;15.45;40.25
6090;BME280;3073;42.660;23.316;2023-11-19T00:49:46;94446.03;;;15.09;40.83
6090;BME280;3073;42.660;23.316;2023-11-19T00:52:14;94455.78;;;15.12;41.05
6090;BME280;3073;42.660;23.316;2023-11-19T00:54:41;94444.44;;;14.64;41.23
6090;BME280;3073;42.660;23.316;2023-11-19T00:57:09;94433.13;;;14.60;41.84
6090;BME280;3073;42.660;23.316;2023-11-19T00:59:37;94458.38;;;13.82;42.85
6090;BME280;3073;42.660;23.316;2023-11-19T01:02:04;94438.03;;;15.16;41.39
6090;BME280;3073;42.660;23.316;2023-11-19T01:04:33;94452.09;;;14.74;42.26
6090;BME280;3073;42.660;23.316;2023-11-19T01:07:01;94452.28;;;14.93;41.09
6090;BME280;3073;42.660;23.316;2023-11-19T01:09:29;94452.59;;;14.71;42.09
6090;BME280;3073;42.660;23.316;2023-11-19T01:11:59;94460.34;;;13.30;43.53
6090;BME280;3073;42.660;23.316;2023-11-19T01:14:28;94457.47;;;15.32;41.26
6090;BME280;3073;42.660;23.316;2023-11-19T01:16:56;94458.84;;;13.44;44.16
6090;BME280;3073;42.660;23.316;2023-11-19T01:19:23;94453.22;;;13.72;43.66
6090;BME280;3073;42.660;23.316;2023-11-19T01:21:51;94453.38;;;14.77;41.79
6090;BME280;3073;42.660;23.316;2023-11-19T01:24:18;94453.34;;;14.87;40.86
6090;BME280;3073;42.660;23.316;2023-11-19T01:26:45;94457.59;;;14.07;43.10
6090;BME280;3073;42.660;23.316;2023-11-19T01:29:12;94454.47;;;14.25;41.58
6090;BME280;3073;42.660;23.316;2023-11-19T01:31:41;94465.25;;;14.53;42.13
6090;BME280;3073;42.660;23.316;2023-11-19T01:34:09;94465.50;;;13.40;43.61
6090;BME280;3073;42.660;23.316;2023-11-19T01:36:37;94475.31;;;14.34;41.86
6090;BME280;3073;42.660;23.316;2023-11-19T01:39:04;94477.31;;;13.71;43.35
6090;BME280;3073;42.660;23.316;2023-11-19T01:41:34;94474.25;;;13.54;42.79
6090;BME280;3073;42.660;23.316;2023-11-19T01:44:01;94478.44;;;13.03;43.60
6090;BME280;3073;42.660;23.316;2023-11-19T01:46:29;94463.22;;;13.69;42.85
6090;BME280;3073;42.660;23.316;2023-11-19T01:48:59;94468.88;;;14.36;41.64
6090;BME280;3073;42.660;23.316;2023-11-19T01:51:27;94482.19;;;14.54;41.42
6090;BME280;3073;42.660;23.316;2023-11-19T01:53:54;94489.38;;;14.26;41.58
6090;BME280;3073;42.660;23.316;2023-11-19T01:56:22;94476.06;;;13.94;41.76
6090;BME280;3073;42.660;23.316;2023-11-19T01:58:50;94486.84;;;13.86;42.48
6090;BME280;3073;42.660;23.316;2023-11-19T02:01:17;94488.63;;;14.41;41.49
6090;BME280;3073;42.660;23.316;2023-11-19T02:03:44;94493.69;;;15.35;40.16
6090;BME280;3073;42.660;23.316;2023-11-19T02:06:14;94470.63;;;12.73;43.79
6090;BME280;3073;42.660;23.316;2023-11-19T02:08:42;94464.44;;;14.62;40.83
6090;BME280;3073;42.660;23.316;2023-11-19T02:11:10;94459.38;;;15.11;40.22
6090;BME280;3073;42.660;23.316;2023-11-19T02:13:38;94452.91;;;15.24;40.07
6090;BME280;3073;42.660;23.316;2023-11-19T02:16:07;94449.38;;;13.75;41.97
6090;BME280;3073;42.660;23.316;2023-11-19T02:18:36;94454.25;;;13.56;42.47
6090;BME280;3073;42.660;23.316;2023-11-19T02:21:03;94445.81;;;13.81;41.78
6090;BME280;3073;42.660;23.316;2023-11-19T02:23:32;94451.16;;;13.44;42.67
6090;BME280;3073;42.660;23.316;2023-11-19T02:26:09;94456.63;;;12.90;43.55
6090;BME280;3073;42.660;23.316;2023-11-19T02:28:41;94457.69;;;13.05;43.59
6090;BME280;3073;42.660;23.316;2023-11-19T02:31:08;94468.09;;;13.75;42.29
6090;BME280;3073;42.660;23.316;2023-11-19T02:33:35;94474.78;;;13.97;41.73
6090;BME280;3073;42.660;23.316;2023-11-19T02:36:03;94455.81;;;15.02;39.99
6090;BME280;3073;42.660;23.316;2023-11-19T02:38:30;94459.38;;;13.76;41.66
6090;BME280;3073;42.660;23.316;2023-11-19T02:40:57;94461.66;;;14.38;41.62
6090;BME280;3073;42.660;23.316;2023-11-19T02:43:24;94468.09;;;13.96;41.70
6090;BME280;3073;42.660;23.316;2023-11-19T02:45:52;94466.56;;;14.10;41.58
6090;BME280;3073;42.660;23.316;2023-11-19T02:48:21;94459.59;;;13.39;42.03
6090;BME280;3073;42.660;23.316;2023-11-19T02:50:48;94467.56;;;14.49;41.22
6090;BME280;3073;42.660;23.316;2023-11-19T02:53:15;94476.75;;;13.24;42.58
6090;BME280;3073;42.660;23.316;2023-11-19T02:55:43;94460.41;;;13.85;41.82
6090;BME280;3073;42.660;23.316;2023-11-19T02:58:14;94458.09;;;13.59;42.43
6090;BME280;3073;42.660;23.316;2023-11-19T03:00:49;94451.16;;;13.84;41.63
6090;BME280;3073;42.660;23.316;2023-11-19T03:03:24;94446.94;;;15.33;39.34
6090;BME280;3073;42.660;23.316;2023-11-19T03:05:56;94455.25;;;13.40;41.71
6090;BME280;3073;42.660;23.316;2023-11-19T03:08:23;94448.88;;;14.03;41.44
6090;BME280;3073;42.660;23.316;2023-11-19T03:10:50;94440.16;;;13.94;41.41
6090;BME280;3073;42.660;23.316;2023-11-19T03:13:17;94453.44;;;13.35;42.55
6090;BME280;3073;42.660;23.316;2023-11-19T03:15:43;94457.53;;;12.64;43.77
6090;BME280;3073;42.660;23.316;2023-11-19T03:18:11;94457.34;;;13.88;42.40
6090;BME280;3073;42.660;23.316;2023-11-19T03:20:39;94455.25;;;13.40;42.72
6090;BME280;3073;42.660;23.316;2023-11-19T03:23:06;94451.69;;;14.17;41.59
6090;BME280;3073;42.660;23.316;2023-11-19T03:25:33;94457.81;;;14.26;41.54
6090;BME280;3073;42.660;23.316;2023-11-19T03:28:02;94450.81;;;14.77;40.56
6090;BME280;3073;42.660;23.316;2023-11-19T03:30:29;94460.03;;;14.78;40.72
6090;BME280;3073;42.660;23.316;2023-11-19T03:32:56;94457.03;;;14.25;41.16
6090;BME280;3073;42.660;23.316;2023-11-19T03:35:24;94461.06;;;13.10;42.71
6090;BME280;3073;42.660;23.316;2023-11-19T03:37:52;94453.66;;;14.70;40.24
6090;BME280;3073;42.660;23.316;2023-11-19T03:40:19;94461.19;;;15.06;39.93
6090;BME280;3073;42.660;23.316;2023-11-19T03:42:46;94474.19;;;14.70;40.55
6090;BME280;3073;42.660;23.316;2023-11-19T03:45:13;94463.22;;;13.69;41.53
6090;BME280;3073;42.660;23.316;2023-11-19T03:47:41;94473.75;;;14.13;41.71
6090;BME280;3073;42.660;23.316;2023-11-19T03:50:08;94481.97;;;14.00;41.52
6090;BME280;3073;42.660;23.316;2023-11-19T03:52:35;94487.66;;;15.06;39.92
6090;BME280;3073;42.660;23.316;2023-11-19T03:55:04;94481.41;;;14.48;40.78
6090;BME280;3073;42.660;23.316;2023-11-19T03:57:34;94489.66;;;14.50;41.05
6090;BME280;3073;42.660;23.316;2023-11-19T04:00:01;94476.91;;;14.99;40.17
6090;BME280;3073;42.660;23.316;2023-11-19T04:02:33;94476.72;;;14.75;40.54
6090;BME280;3073;42.660;23.316;2023-11-19T04:05:00;94492.75;;;14.37;40.99
6090;BME280;3073;42.660;23.316;2023-11-19T04:07:27;94489.63;;;13.59;42.12
6090;BME280;3073;42.660;23.316;2023-11-19T04:09:54;94492.03;;;15.06;40.31
6090;BME280;3073;42.660;23.316;2023-11-19T04:12:22;94507.81;;;13.68;42.02
6090;BME280;3073;42.660;23.316;2023-11-19T04:14:49;94507.59;;;14.60;40.99
6090;BME280;3073;42.660;23.316;2023-11-19T04:17:16;94508.63;;;14.59;40.89
6090;BME280;3073;42.660;23.316;2023-11-19T04:19:42;94511.72;;;14.11;41.61
6090;BME280;3073;42.660;23.316;2023-11-19T04:22:09;94525.06;;;12.58;43.79
6090;BME280;3073;42.660;23.316;2023-11-19T04:24:36;94510.19;;;14.20;40.88
6090;BME280;3073;42.660;23.316;2023-11-19T04:27:04;94507.13;;;13.98;41.60
6090;BME280;3073;42.660;23.316;2023-11-19T04:29:33;94505.56;;;14.17;41.50
6090;BME280;3073;42.660;23.316;2023-11-19T04:32:00;94514.28;;;14.06;41.35
6090;BME280;3073;42.660;23.316;2023-11-19T04:34:26;94513.25;;;14.07;41.44
6090;BME280;3073;42.660;23.316;2023-11-19T04:36:54;94525.03;;;13.72;42.04
6090;BME280;3073;42.660;23.316;2023-11-19T04:39:21;94524.72;;;12.86;43.09
6090;BME280;3073;42.660;23.316;2023-11-19T04:41:48;94525.53;;;14.80;40.64
6090;BME280;3073;42.660;23.316;2023-11-19T04:44:15;94523.53;;;13.97;41.00
6090;BME280;3073;42.660;23.316;2023-11-19T04:46:44;94525.69;;;15.14;39.64
6090;BME280;3073;42.660;23.316;2023-11-19T04:49:11;94535.47;;;12.88;42.46
6090;BME280;3073;42.660;23.316;2023-11-19T04:51:39;94538.34;;;13.54;41.65
6090;BME280;3073;42.660;23.316;2023-11-19T04:54:07;94538.75;;;13.21;42.37
6090;BME280;3073;42.660;23.316;2023-11-19T04:56:34;94533.56;;;12.64;43.34
6090;BME280;3073;42.660;23.316;2023-11-19T04:59:02;94536.63;;;14.61;40.38
6090;BME280;3073;42.660;23.316;2023-11-19T05:01:28;94539.97;;;14.56;40.32
6090;BME280;3073;42.660;23.316;2023-11-19T05:03:57;94540.97;;;14.05;40.88
6090;BME280;3073;42.660;23.316;2023-11-19T05:06:26;94561.09;;;15.22;39.45
6090;BME280;3073;42.660;23.316;2023-11-19T05:08:53;94562.47;;;12.64;43.16
6090;BME280;3073;42.660;23.316;2023-11-19T05:11:20;94568.19;;;14.11;40.85
6090;BME280;3073;42.660;23.316;2023-11-19T05:13:50;94565.31;;;13.92;41.01
6090;BME280;3073;42.660;23.316;2023-11-19T05:16:16;94571.59;;;12.87;42.71
6090;BME280;3073;42.660;23.316;2023-11-19T05:18:44;94568.16;;;12.34;43.42
6090;BME280;3073;42.660;23.316;2023-11-19T05:21:13;94568.19;;;14.61;40.14
6090;BME280;3073;42.660;23.316;2023-11-19T05:23:40;94564.84;;;14.81;39.90
6090;BME280;3073;42.660;23.316;2023-11-19T05:26:07;94562.31;;;14.40;40.52
6090;BME280;3073;42.660;23.316;2023-11-19T05:28:37;94553.75;;;14.95;39.54
6090;BME280;3073;42.660;23.316;2023-11-19T05:31:05;94547.31;;;13.00;42.58
6090;BME280;3073;42.660;23.316;2023-11-19T05:33:32;94552.25;;;13.11;41.57
6090;BME280;3073;42.660;23.316;2023-11-19T05:35:59;94552.16;;;11.64;44.40
6090;BME280;3073;42.660;23.316;2023-11-19T05:38:30;94565.56;;;13.85;41.42
6090;BME280;3073;42.660;23.316;2023-11-19T05:40:57;94567.50;;;13.43;41.69
6090;BME280;3073;42.660;23.316;2023-11-19T05:43:23;94570.38;;;13.05;42.95
6090;BME280;3073;42.660;23.316;2023-11-19T05:45:50;94566.25;;;12.99;43.02
6090;BME280;3073;42.660;23.316;2023-11-19T05:48:18;94576.81;;;13.64;42.03
6090;BME280;3073;42.660;23.316;2023-11-19T05:50:46;94578.66;;;12.70;43.49
6090;BME280;3073;42.660;23.316;2023-11-19T05:53:16;94581.78;;;12.82;42.55
6090;BME280;3073;42.660;23.316;2023-11-19T05:55:45;94570.94;;;11.74;45.30
6090;BME280;3073;42.660;23.316;2023-11-19T05:58:23;94582.38;;;12.94;43.00
6090;BME280;3073;42.660;23.316;2023-11-19T06:00:55;94569.22;;;12.07;44.54
6090;BME280;3073;42.660;23.316;2023-11-19T06:03:22;94582.38;;;13.46;42.30
6090;BME280;3073;42.660;23.316;2023-11-19T06:05:51;94586.97;;;13.39;42.07
6090;BME280;3073;42.660;23.316;2023-11-19T06:08:20;94597.31;;;13.74;41.64
6090;BME280;3073;42.660;23.316;2023-11-19T06:10:50;94595.41;;;14.52;40.42
6090;BME280;3073;42.660;23.316;2023-11-19T06:13:18;94590.28;;;14.37;40.87
6090;BME280;3073;42.660;23.316;2023-11-19T06:15:45;94599.94;;;13.94;41.63
6090;BME280;3073;42.660;23.316;2023-11-19T06:18:12;94591.53;;;13.32;42.19
6090;BME280;3073;42.660;23.316;2023-11-19T06:20:40;94589.72;;;14.10;40.87
6090;BME280;3073;42.660;23.316;2023-11-19T06:23:07;94597.63;;;13.16;42.23
6090;BME280;3073;42.660;23.316;2023-11-19T06:25:34;94592.28;;;14.20;40.99
6090;BME280;3073;42.660;23.316;2023-11-19T06:28:02;94591.22;;;13.80;41.81
6090;BME280;3073;42.660;23.316;2023-11-19T06:30:29;94601.03;;;14.79;40.57
6090;BME280;3073;42.660;23.316;2023-11-19T06:32:58;94607.38;;;13.19;42.27
6090;BME280;3073;42.660;23.316;2023-11-19T06:35:25;94602.00;;;13.87;42.09
6090;BME280;3073;42.660;23.316;2023-11-19T06:37:52;94591.16;;;13.60;41.72
6090;BME280;3073;42.660;23.316;2023-11-19T06:40:20;94597.19;;;13.29;42.28
6090;BME280;3073;42.660;23.316;2023-11-19T06:42:47;94592.25;;;15.06;40.31
6090;BME280;3073;42.660;23.316;2023-11-19T06:45:16;94602.50;;;15.16;39.19
6090;BME280;3073;42.660;23.316;2023-11-19T06:47:43;94596.06;;;13.15;42.29
6090;BME280;3073;42.660;23.316;2023-11-19T06:50:13;94599.69;;;13.14;42.42
6090;BME280;3073;42.660;23.316;2023-11-19T06:52:40;94596.28;;;13.65;41.17
6090;BME280;3073;42.660;23.316;2023-11-19T06:55:08;94595.66;;;13.33;42.20
6090;BME280;3073;42.660;23.316;2023-11-19T06:57:35;94588.28;;;13.00;42.45
6090;BME280;3073;42.660;23.316;2023-11-19T07:00:03;94604.34;;;13.27;41.81
6090;BME280;3073;42.660;23.316;2023-11-19T07:02:32;94598.25;;;15.65;38.43
6090;BME280;3073;42.660;23.316;2023-11-19T07:04:59;94605.34;;;13.98;40.77
6090;BME280;3073;42.660;23.316;2023-11-19T07:07:27;94610.78;;;14.98;39.46
6090;BME280;3073;42.660;23.316;2023-11-19T07:09:54;94613.84;;;14.94;39.40
6090;BME280;3073;42.660;23.316;2023-11-19T07:12:23;94617.44;;;14.18;40.26
6090;BME280;3073;42.660;23.316;2023-11-19T07:14:52;94612.56;;;12.55;43.06
6090;BME280;3073;42.660;23.316;2023-11-19T07:17:20;94605.09;;;12.85;43.07
6090;BME280;3073;42.660;23.316;2023-11-19T07:19:49;94607.03;;;12.05;44.02
6090;BME280;3073;42.660;23.316;2023-11-19T07:22:17;94611.69;;;13.70;40.92
6090;BME280;3073;42.660;23.316;2023-11-19T07:24:44;94624.31;;;11.49;44.20
6090;BME280;3073;42.660;23.316;2023-11-19T07:27:12;94618.00;;;13.43;41.65
6090;BME280;3073;42.660;23.316;2023-11-19T07:29:39;94624.56;;;13.23;42.32
6090;BME280;3073;42.660;23.316;2023-11-19T07:32:06;94618.91;;;12.16;43.08
6090;BME280;3073;42.660;23.316;2023-11-19T07:34:34;94643.22;;;12.45;42.73
6090;BME280;3073;42.660;23.316;2023-11-19T07:37:03;94653.16;;;12.15;43.40
6090;BME280;3073;42.660;23.316;2023-11-19T07:39:30;94651.28;;;12.05;43.54
6090;BME280;3073;42.660;23.316;2023-11-19T07:41:58;94659.16;;;12.89;42.18
6090;BME280;3073;42.660;23.316;2023-11-19T07:44:24;94660.03;;;12.36;43.04
6090;BME280;3073;42.660;23.316;2023-11-19T07:46:52;94655.28;;;13.70;41.00
6090;BME280;3073;42.660;23.316;2023-11-19T07:49:19;94652.69;;;13.65;40.84
6090;BME280;3073;42.660;23.316;2023-11-19T07:51:46;94642.53;;;13.96;40.78
6090;BME280;3073;42.660;23.316;2023-11-19T07:54:15;94654.81;;;12.89;41.09
6090;BME280;3073;42.660;23.316;2023-11-19T07:56:42;94654.88;;;13.00;41.92
6090;BME280;3073;42.660;23.316;2023-11-19T07:59:10;94661.72;;;12.25;42.56
6090;BME280;3073;42.660;23.316;2023-11-19T08:01:38;94660.69;;;13.22;41.57
6090;BME280;3073;42.660;23.316;2023-11-19T08:04:05;94663.31;;;12.95;41.91
6090;BME280;3073;42.660;23.316;2023-11-19T08:06:32;94664.81;;;12.59;43.05
6090;BME280;3073;42.660;23.316;2023-11-19T08:09:00;94670.25;;;13.36;41.56
6090;BME280;3073;42.660;23.316;2023-11-19T08:11:28;94671.66;;;12.80;41.71
6090;BME280;3073;42.660;23.316;2023-11-19T08:13:55;94665.81;;;12.53;42.31
6090;BME280;3073;42.660;23.316;2023-11-19T08:16:23;94672.41;;;12.81;42.29
6090;BME280;3073;42.660;23.316;2023-11-19T08:18:52;94678.09;;;13.20;41.84
6090;BME280;3073;42.660;23.316;2023-11-19T08:21:19;94684.78;;;14.75;39.45
6090;BME280;3073;42.660;23.316;2023-11-19T08:23:48;94675.75;;;12.23;42.72
6090;BME280;3073;42.660;23.316;2023-11-19T08:26:15;94667.41;;;11.41;44.33
6090;BME280;3073;42.660;23.316;2023-11-19T08:28:44;94681.66;;;12.23;43.37
6090;BME280;3073;42.660;23.316;2023-11-19T08:31:10;94680.91;;;12.28;43.16
6090;BME280;3073;42.660;23.316;2023-11-19T08:33:37;94673.97;;;12.50;43.11
6090;BME280;3073;42.660;23.316;2023-11-19T08:36:05;94687.34;;;12.57;42.65
6090;BME280;3073;42.660;23.316;2023-11-19T08:38:31;94679.22;;;12.38;42.55
6090;BME280;3073;42.660;23.316;2023-11-19T08:40:58;94686.16;;;12.70;42.52
6090;BME280;3073;42.660;23.316;2023-11-19T08:43:26;94692.47;;;14.40;39.87
6090;BME280;3073;42.660;23.316;2023-11-19T08:45:54;94692.56;;;12.67;42.47
6090;BME280;3073;42.660;23.316;2023-11-19T08:48:23;94697.94;;;13.39;40.48
6090;BME280;3073;42.660;23.316;2023-11-19T08:50:51;94687.59;;;13.24;40.69
6090;BME280;3073;42.660;23.316;2023-11-19T08:53:18;94687.31;;;14.45;38.87
6090;BME280;3073;42.660;23.316;2023-11-19T08:55:44;94688.41;;;13.77;40.20
6090;BME280;3073;42.660;23.316;2023-11-19T08:58:11;94698.69;;;13.35;40.60
6090;BME280;3073;42.660;23.316;2023-11-19T09:00:39;94698.44;;;13.05;41.22
6090;BME280;3073;42.660;23.316;2023-11-19T09:03:07;94692.03;;;13.34;40.58
6090;BME280;3073;42.660;23.316;2023-11-19T09:05:34;94675.03;;;14.72;38.94
6090;BME280;3073;42.660;23.316;2023-11-19T09:08:02;94673.41;;;14.31;39.34
6090;BME280;3073;42.660;23.316;2023-11-19T09:10:29;94672.63;;;12.16;42.29
6090;BME280;3073;42.660;23.316;2023-11-19T09:12:56;94667.38;;;13.85;40.19
6090;BME280;3073;42.660;23.316;2023-11-19T09:15:23;94650.50;;;12.95;41.50
6090;BME280;3073;42.660;23.316;2023-11-19T09:17:50;94652.41;;;13.57;40.89
6090;BME280;3073;42.660;23.316;2023-11-19T09:20:19;94638.94;;;13.86;40.12
6090;BME280;3073;42.660;23.316;2023-11-19T09:22:46;94655.97;;;14.38;39.22
6090;BME280;3073;42.660;23.316;2023-11-19T09:25:13;94665.25;;;14.54;39.28
6090;BME280;3073;42.660;23.316;2023-11-19T09:27:42;94681.13;;;14.41;39.61
6090;BME280;3073;42.660;23.316;2023-11-19T09:30:10;94680.16;;;14.98;38.11
6090;BME280;3073;42.660;23.316;2023-11-19T09:32:36;94690.44;;;14.77;38.62
6090;BME280;3073;42.660;23.316;2023-11-19T09:35:04;94682.72;;;15.13;38.13
6090;BME280;3073;42.660;23.316;2023-11-19T09:37:33;94667.06;;;14.59;38.99
6090;BME280;3073;42.660;23.316;2023-11-19T09:40:00;94648.03;;;13.52;40.16
6090;BME280;3073;42.660;23.316;2023-11-19T09:42:28;94637.44;;;13.33;40.52
6090;BME280;3073;42.660;23.316;2023-11-19T09:44:56;94639.06;;;14.57;39.02
6090;BME280;3073;42.660;23.316;2023-11-19T09:47:25;94620.56;;;14.40;39.41
6090;BME280;3073;42.660;23.316;2023-11-19T09:49:55;94627.16;;;13.96;39.82
6090;BME280;3073;42.660;23.316;2023-11-19T09:52:23;94612.56;;;15.02;38.87
6090;BME280;3073;42.660;23.316;2023-11-19T09:54:51;94599.84;;;15.56;38.22
6090;BME280;3073;42.660;23.316;2023-11-19T09:57:18;94592.81;;;14.98;38.52
6090;BME280;3073;42.660;23.316;2023-11-19T09:59:49;94604.34;;;15.05;39.20
6090;BME280;3073;42.660;23.316;2023-11-19T10:02:17;94604.75;;;13.61;41.03
6090;BME280;3073;42.660;23.316;2023-11-19T10:04:46;94601.91;;;15.49;38.12
6090;BME280;3073;42.660;23.316;2023-11-19T10:07:13;94596.03;;;16.36;37.12
6090;BME280;3073;42.660;23.316;2023-11-19T10:09:40;94591.75;;;16.89;36.15
6090;BME280;3073;42.660;23.316;2023-11-19T10:12:09;94600.69;;;17.68;34.80
6090;BME280;3073;42.660;23.316;2023-11-19T10:14:37;94604.91;;;15.71;36.68
6090;BME280;3073;42.660;23.316;2023-11-19T10:17:07;94597.94;;;14.17;39.46
6090;BME280;3073;42.660;23.316;2023-11-19T10:19:34;94602.78;;;15.14;38.77
6090;BME280;3073;42.660;23.316;2023-11-19T10:22:04;94588.22;;;13.31;39.90
6090;BME280;3073;42.660;23.316;2023-11-19T10:24:34;94610.00;;;14.92;38.47
6090;BME280;3073;42.660;23.316;2023-11-19T10:27:06;94603.03;;;13.91;39.51
6090;BME280;3073;42.660;23.316;2023-11-19T10:29:37;94609.25;;;14.31;39.25
6090;BME280;3073;42.660;23.316;2023-11-19T10:32:04;94592.72;;;15.18;37.86
6090;BME280;3073;42.660;23.316;2023-11-19T10:34:31;94578.28;;;15.32;37.60
6090;BME280;3073;42.660;23.316;2023-11-19T10:36:58;94586.44;;;17.94;34.60
6090;BME280;3073;42.660;23.316;2023-11-19T10:39:50;94582.69;;;19.02;33.46
6090;BME280;3073;42.660;23.316;2023-11-19T10:42:18;94589.69;;;17.63;34.57
6090;BME280;3073;42.660;23.316;2023-11-19T10:44:47;94608.47;;;19.35;32.81
6090;BME280;3073;42.660;23.316;2023-11-19T10:47:14;94598.75;;;18.86;32.90
6090;BME280;3073;42.660;23.316;2023-11-19T10:49:43;94602.63;;;19.84;31.59
6090;BME280;3073;42.660;23.316;2023-11-19T10:52:12;94598.63;;;18.26;33.93
6090;BME280;3073;42.660;23.316;2023-11-19T10:54:44;94605.25;;;17.95;33.31
6090;BME280;3073;42.660;23.316;2023-11-19T10:57:12;94587.72;;;17.31;34.11
6090;BME280;3073;42.660;23.316;2023-11-19T10:59:47;94590.50;;;18.00;33.75
6090;BME280;3073;42.660;23.316;2023-11-19T11:02:17;94589.78;;;17.76;33.90
6090;BME280;3073;42.660;23.316;2023-11-19T11:04:47;94583.53;;;17.59;34.23
6090;BME280;3073;42.660;23.316;2023-11-19T11:07:15;94574.28;;;19.11;32.29
6090;BME280;3073;42.660;23.316;2023-11-19T11:09:44;94555.09;;;18.84;32.85
6090;BME280;3073;42.660;23.316;2023-11-19T11:12:12;94552.03;;;19.37;32.03
6090;BME280;3073;42.660;23.316;2023-11-19T11:14:39;94551.97;;;20.27;31.19
6090;BME280;3073;42.660;23.316;2023-11-19T11:17:11;94546.66;;;21.81;29.91
6090;BME280;3073;42.660;23.316;2023-11-19T11:19:41;94540.47;;;20.64;29.98
6090;BME280;3073;42.660;23.316;2023-11-19T11:22:09;94528.03;;;20.83;30.03
6090;BME280;3073;42.660;23.316;2023-11-19T11:25:11;94544.13;;;20.41;30.77
6090;BME280;3073;42.660;23.316;2023-11-19T11:27:49;94541.22;;;18.94;31.84
6090;BME280;3073;42.660;23.316;2023-11-19T11:30:29;94542.66;;;20.79;31.15
6090;BME280;3073;42.660;23.316;2023-11-19T11:33:10;94543.13;;;20.81;30.52
6090;BME280;3073;42.660;23.316;2023-11-19T11:35:50;94551.13;;;21.33;29.74
6090;BME280;3073;42.660;23.316;2023-11-19T11:38:22;94551.28;;;22.01;29.07
6090;BME280;3073;42.660;23.316;2023-11-19T11:41:15;94528.19;;;21.18;29.08
6090;BME280;3073;42.660;23.316;2023-11-19T11:43:45;94534.53;;;21.60;29.65
6090;BME280;3073;42.660;23.316;2023-11-19T11:49:28;94514.69;;;21.64;28.83
6090;BME280;3073;42.660;23.316;2023-11-19T11:51:59;94506.25;;;19.51;31.06
6090;BME280;3073;42.660;23.316;2023-11-19T11:54:28;94517.81;;;21.26;29.52
6090;BME280;3073;42.660;23.316;2023-11-19T11:57:17;94521.53;;;19.97;30.63
6090;BME280;3073;42.660;23.316;2023-11-19T11:59:48;94530.63;;;21.96;29.28
6090;BME280;3073;42.660;23.316;2023-11-19T12:02:16;94537.41;;;23.95;27.92
6090;BME280;3073;42.660;23.316;2023-11-19T12:04:48;94545.94;;;21.33;29.38
6090;BME280;3073;42.660;23.316;2023-11-19T12:07:17;94534.88;;;22.99;28.31
6090;BME280;3073;42.660;23.316;2023-11-19T12:09:48;94523.75;;;24.52;26.94
6090;BME280;3073;42.660;23.316;2023-11-19T12:12:20;94515.78;;;24.36;26.91
6090;BME280;3073;42.660;23.316;2023-11-19T12:15:00;94519.06;;;24.78;26.48
6090;BME280;3073;42.660;23.316;2023-11-19T12:17:44;94507.94;;;24.03;26.73
6090;BME280;3073;42.660;23.316;2023-11-19T12:20:16;94512.16;;;24.62;26.38
6090;BME280;3073;42.660;23.316;2023-11-19T12:22:44;94503.63;;;24.40;26.78
6090;BME280;3073;42.660;23.316;2023-11-19T12:25:12;94509.97;;;23.77;27.25
6090;BME280;3073;42.660;23.316;2023-11-19T12:27:40;94493.00;;;22.83;27.70
6090;BME280;3073;42.660;23.316;2023-11-19T12:30:08;94487.69;;;24.54;26.67
6090;BME280;3073;42.660;23.316;2023-11-19T12:32:39;94497.84;;;25.52;25.65
6090;BME280;3073;42.660;23.316;2023-11-19T12:35:08;94484.81;;;23.61;26.34
6090;BME280;3073;42.660;23.316;2023-11-19T12:37:41;94487.09;;;24.36;25.75
6090;BME280;3073;42.660;23.316;2023-11-19T12:40:15;94485.06;;;23.68;27.35
6090;BME280;3073;42.660;23.316;2023-11-19T12:42:43;94475.13;;;25.17;25.58
6090;BME280;3073;42.660;23.316;2023-11-19T12:45:10;94489.75;;;26.09;25.02
6090;BME280;3073;42.660;23.316;2023-11-19T12:47:38;94477.47;;;25.46;25.42
6090;BME280;3073;42.660;23.316;2023-11-19T12:50:05;94476.53;;;23.79;26.91
6090;BME280;3073;42.660;23.316;2023-11-19T12:52:33;94470.94;;;24.55;26.28
6090;BME280;3073;42.660;23.316;2023-11-19T12:55:02;94484.47;;;22.66;27.60
6090;BME280;3073;42.660;23.316;2023-11-19T12:57:39;94478.50;;;22.10;29.13
6090;BME280;3073;42.660;23.316;2023-11-19T13:00:07;94469.19;;;23.02;28.26
6090;BME280;3073;42.660;23.316;2023-11-19T13:02:47;94465.38;;;24.12;27.44
6090;BME280;3073;42.660;23.316;2023-11-19T13:05:26;94458.31;;;24.12;27.79
6090;BME280;3073;42.660;23.316;2023-11-19T13:08:03;94456.69;;;24.52;27.29
6090;BME280;3073;42.660;23.316;2023-11-19T13:10:33;94462.72;;;25.14;26.41
6090;BME280;3073;42.660;23.316;2023-11-19T13:13:04;94460.09;;;23.67;27.64
6090;BME280;3073;42.660;23.316;2023-11-19T13:15:32;94465.38;;;24.44;27.29
6090;BME280;3073;42.660;23.316;2023-11-19T13:17:59;94467.28;;;25.29;26.58
6090;BME280;3073;42.660;23.316;2023-11-19T13:20:26;94462.06;;;24.02;27.55